sensor_id;sensor_type;location;lat;lon;timestamp;pressure;altitude;pressure_sealevel;temperature;humidity
46007;BME280;31738;50.188;8.524;2023-02-15T00:00:06;100279.91;;;2.86;93.77
46007;BME280;31738;50.188;8.524;2023-02-15T00:02:39;100280.28;;;2.83;93.70
46007;BME280;31738;50.188;8.524;2023-02-15T00:05:05;100262.34;;;2.85;93.88
46007;BME280;31738;50.188;8.524;2023-02-15T00:07:31;100270.13;;;2.87;94.01
46007;BME280;31738;50.188;8.524;2023-02-15T00:09:57;100269.31;;;2.86;93.60
46007;BME280;31738;50.188;8.524;2023-02-15T00:12:23;100264.38;;;2.83;94.03
46007;BME280;31738;50.188;8.524;2023-02-15T00:14:48;100265.56;;;2.81;93.85
46007;BME280;31738;50.188;8.524;2023-02-15T00:17:14;100264.56;;;2.82;94.03
46007;BME280;31738;50.188;8.524;2023-02-15T00:19:39;100257.88;;;2.86;94.07
46007;BME280;31738;50.188;8.524;2023-02-15T00:22:05;100245.28;;;2.88;94.23
46007;BME280;31738;50.188;8.524;2023-02-15T00:24:33;100244.44;;;2.87;94.04
46007;BME280;31738;50.188;8.524;2023-02-15T00:26:58;100241.63;;;2.89;94.07
46007;BME280;31738;50.188;8.524;2023-02-15T00:29:24;100241.63;;;2.89;94.11
46007;BME280;31738;50.188;8.524;2023-02-15T00:31:49;100240.78;;;2.88;94.14
46007;BME280;31738;50.188;8.524;2023-02-15T00:34:18;100239.97;;;2.88;93.97
46007;BME280;31738;50.188;8.524;2023-02-15T00:36:44;100241.81;;;2.87;93.90
46007;BME280;31738;50.188;8.524;2023-02-15T00:39:10;100248.53;;;2.90;94.43
46007;BME280;31738;50.188;8.524;2023-02-15T00:41:36;100239.16;;;2.87;94.00
46007;BME280;31738;50.188;8.524;2023-02-15T00:44:03;100234.88;;;2.86;94.49
46007;BME280;31738;50.188;8.524;2023-02-15T00:46:29;100233.41;;;2.84;94.54
46007;BME280;31738;50.188;8.524;2023-02-15T00:48:54;100243.75;;;2.79;94.56
46007;BME280;31738;50.188;8.524;2023-02-15T00:51:20;100240.72;;;2.82;94.85
46007;BME280;31738;50.188;8.524;2023-02-15T00:53:46;100237.72;;;2.85;94.39
46007;BME280;31738;50.188;8.524;2023-02-15T00:56:12;100238.31;;;2.87;94.59
46007;BME280;31738;50.188;8.524;2023-02-15T00:58:38;100240.78;;;2.88;94.21
46007;BME280;31738;50.188;8.524;2023-02-15T01:01:12;100236.50;;;2.87;94.40
46007;BME280;31738;50.188;8.524;2023-02-15T01:03:38;100243.00;;;2.85;94.42
46007;BME280;31738;50.188;8.524;2023-02-15T01:06:04;100239.72;;;2.83;94.36
46007;BME280;31738;50.188;8.524;2023-02-15T01:08:30;100236.22;;;2.82;94.54
46007;BME280;31738;50.188;8.524;2023-02-15T01:10:56;100233.78;;;2.81;94.29
46007;BME280;31738;50.188;8.524;2023-02-15T01:13:24;100230.13;;;2.82;94.47
46007;BME280;31738;50.188;8.524;2023-02-15T01:16:00;100232.78;;;2.82;94.55
46007;BME280;31738;50.188;8.524;2023-02-15T01:18:26;100230.75;;;2.84;94.67
46007;BME280;31738;50.188;8.524;2023-02-15T01:20:52;100227.97;;;2.71;94.84
46007;BME280;31738;50.188;8.524;2023-02-15T01:23:18;100219.00;;;2.72;94.79
46007;BME280;31738;50.188;8.524;2023-02-15T01:25:46;100219.44;;;2.75;94.34
46007;BME280;31738;50.188;8.524;2023-02-15T01:28:14;100210.31;;;2.78;94.51
46007;BME280;31738;50.188;8.524;2023-02-15T01:30:40;100222.56;;;2.79;94.48
46007;BME280;31738;50.188;8.524;2023-02-15T01:33:06;100219.53;;;2.82;94.69
46007;BME280;31738;50.188;8.524;2023-02-15T01:35:32;100216.88;;;2.82;94.21
46007;BME280;31738;50.188;8.524;2023-02-15T01:37:57;100206.91;;;2.84;94.37
46007;BME280;31738;50.188;8.524;2023-02-15T01:40:26;100213.22;;;2.83;94.31
46007;BME280;31738;50.188;8.524;2023-02-15T01:42:54;100217.31;;;2.85;94.52
46007;BME280;31738;50.188;8.524;2023-02-15T01:45:31;100212.94;;;2.78;94.15
46007;BME280;31738;50.188;8.524;2023-02-15T01:50:44;100202.13;;;2.73;95.02
46007;BME280;31738;50.188;8.524;2023-02-15T01:53:21;100200.72;;;2.77;95.04
46007;BME280;31738;50.188;8.524;2023-02-15T01:55:52;100203.56;;;2.75;94.77
46007;BME280;31738;50.188;8.524;2023-02-15T01:58:21;100201.09;;;2.74;94.51
46007;BME280;31738;50.188;8.524;2023-02-15T02:00:48;100194.50;;;2.70;94.92
46007;BME280;31738;50.188;8.524;2023-02-15T02:03:16;100195.16;;;2.72;94.95
46007;BME280;31738;50.188;8.524;2023-02-15T02:05:42;100197.16;;;2.70;94.54
46007;BME280;31738;50.188;8.524;2023-02-15T02:08:08;100196.19;;;2.71;95.04
46007;BME280;31738;50.188;8.524;2023-02-15T02:10:35;100184.56;;;2.72;94.56
46007;BME280;31738;50.188;8.524;2023-02-15T02:13:04;100178.09;;;2.74;94.70
46007;BME280;31738;50.188;8.524;2023-02-15T02:16:10;100182.75;;;2.72;94.60
46007;BME280;31738;50.188;8.524;2023-02-15T02:21:50;100175.38;;;2.68;94.78
46007;BME280;31738;50.188;8.524;2023-02-15T02:24:35;100176.34;;;2.67;94.94
46007;BME280;31738;50.188;8.524;2023-02-15T02:30:04;100181.66;;;2.67;94.92
46007;BME280;31738;50.188;8.524;2023-02-15T02:35:30;100172.53;;;2.69;94.93
46007;BME280;31738;50.188;8.524;2023-02-15T02:46:29;100166.41;;;2.69;94.61
46007;BME280;31738;50.188;8.524;2023-02-15T02:48:56;100166.22;;;2.70;94.85
46007;BME280;31738;50.188;8.524;2023-02-15T02:51:22;100171.13;;;2.73;94.92
46007;BME280;31738;50.188;8.524;2023-02-15T02:53:53;100158.72;;;2.74;94.67
46007;BME280;31738;50.188;8.524;2023-02-15T02:56:29;100163.09;;;2.67;94.99
46007;BME280;31738;50.188;8.524;2023-02-15T02:58:57;100163.09;;;2.67;94.90
46007;BME280;31738;50.188;8.524;2023-02-15T03:01:50;100162.69;;;2.63;95.11
46007;BME280;31738;50.188;8.524;2023-02-15T03:04:22;100159.84;;;2.65;94.72
46007;BME280;31738;50.188;8.524;2023-02-15T03:06:56;100144.75;;;2.65;95.06
46007;BME280;31738;50.188;8.524;2023-02-15T03:09:30;100146.59;;;2.65;95.05
46007;BME280;31738;50.188;8.524;2023-02-15T03:12:13;100142.28;;;2.64;94.89
46007;BME280;31738;50.188;8.524;2023-02-15T03:14:47;100143.56;;;2.68;95.19
46007;BME280;31738;50.188;8.524;2023-02-15T03:17:17;100144.03;;;2.71;95.20
46007;BME280;31738;50.188;8.524;2023-02-15T03:19:45;100138.34;;;2.74;94.84
46007;BME280;31738;50.188;8.524;2023-02-15T03:22:14;100144.44;;;2.75;94.76
46007;BME280;31738;50.188;8.524;2023-02-15T03:24:44;100155.03;;;2.75;94.74
46007;BME280;31738;50.188;8.524;2023-02-15T03:27:19;100144.03;;;2.71;94.80
46007;BME280;31738;50.188;8.524;2023-02-15T03:29:50;100144.81;;;2.72;95.09
46007;BME280;31738;50.188;8.524;2023-02-15T03:32:18;100146.50;;;2.73;94.54
46007;BME280;31738;50.188;8.524;2023-02-15T03:34:44;100139.16;;;2.75;94.84
46007;BME280;31738;50.188;8.524;2023-02-15T03:37:32;100135.91;;;2.73;94.62
46007;BME280;31738;50.188;8.524;2023-02-15T03:40:02;100133.59;;;2.70;94.96
46007;BME280;31738;50.188;8.524;2023-02-15T03:42:58;100134.81;;;2.67;94.50
46007;BME280;31738;50.188;8.524;2023-02-15T03:45:30;100133.78;;;2.68;94.84
46007;BME280;31738;50.188;8.524;2023-02-15T03:47:57;100129.69;;;2.66;94.54
46007;BME280;31738;50.188;8.524;2023-02-15T03:50:30;100142.28;;;2.64;94.71
46007;BME280;31738;50.188;8.524;2023-02-15T03:53:18;100141.03;;;2.60;94.68
46007;BME280;31738;50.188;8.524;2023-02-15T03:55:53;100135.75;;;2.60;94.97
46007;BME280;31738;50.188;8.524;2023-02-15T03:58:19;100133.09;;;2.60;95.03
46007;BME280;31738;50.188;8.524;2023-02-15T04:01:26;100131.66;;;2.57;94.74
46007;BME280;31738;50.188;8.524;2023-02-15T04:04:56;100129.19;;;2.56;94.87
46007;BME280;31738;50.188;8.524;2023-02-15T04:07:15;100132.44;;;2.58;94.96
46007;BME280;31738;50.188;8.524;2023-02-15T04:09:40;100135.38;;;2.63;95.06
46007;BME280;31738;50.188;8.524;2023-02-15T04:12:25;100128.44;;;2.62;95.27
46007;BME280;31738;50.188;8.524;2023-02-15T04:14:50;100134.16;;;2.65;94.81
46007;BME280;31738;50.188;8.524;2023-02-15T04:17:37;100131.69;;;2.64;94.83
46007;BME280;31738;50.188;8.524;2023-02-15T04:20:04;100128.47;;;2.68;94.91
46007;BME280;31738;50.188;8.524;2023-02-15T04:22:48;100132.97;;;2.68;94.74
46007;BME280;31738;50.188;8.524;2023-02-15T04:25:32;100123.19;;;2.68;95.03
46007;BME280;31738;50.188;8.524;2023-02-15T04:28:01;100123.63;;;2.72;94.91
46007;BME280;31738;50.188;8.524;2023-02-15T04:30:53;100124.00;;;2.69;94.70
46007;BME280;31738;50.188;8.524;2023-02-15T04:33:18;100119.75;;;2.68;94.94
46007;BME280;31738;50.188;8.524;2023-02-15T04:35:44;100132.97;;;2.68;94.68
46007;BME280;31738;50.188;8.524;2023-02-15T04:38:10;100126.84;;;2.67;94.82
46007;BME280;31738;50.188;8.524;2023-02-15T04:40:35;100127.31;;;2.71;94.91
46007;BME280;31738;50.188;8.524;2023-02-15T04:43:01;100126.94;;;2.74;94.91
46007;BME280;31738;50.188;8.524;2023-02-15T04:45:26;100123.25;;;2.75;94.89
46007;BME280;31738;50.188;8.524;2023-02-15T04:47:52;100122.09;;;2.77;94.86
46007;BME280;31738;50.188;8.524;2023-02-15T04:50:18;100117.59;;;2.78;94.60
46007;BME280;31738;50.188;8.524;2023-02-15T04:52:44;100113.94;;;2.79;94.61
46007;BME280;31738;50.188;8.524;2023-02-15T04:55:12;100117.59;;;2.78;94.85
46007;BME280;31738;50.188;8.524;2023-02-15T04:57:37;100116.78;;;2.77;94.61
46007;BME280;31738;50.188;8.524;2023-02-15T05:00:03;100112.28;;;2.78;94.92
46007;BME280;31738;50.188;8.524;2023-02-15T05:02:29;100113.75;;;2.80;94.72
46007;BME280;31738;50.188;8.524;2023-02-15T05:04:55;100119.66;;;2.82;94.72
46007;BME280;31738;50.188;8.524;2023-02-15T05:07:20;100117.66;;;2.84;95.01
46007;BME280;31738;50.188;8.524;2023-02-15T05:09:46;100112.34;;;2.84;94.92
46007;BME280;31738;50.188;8.524;2023-02-15T05:12:11;100109.50;;;2.86;94.53
46007;BME280;31738;50.188;8.524;2023-02-15T05:14:36;100111.53;;;2.84;94.50
46007;BME280;31738;50.188;8.524;2023-02-15T05:17:02;100103.19;;;2.87;94.83
46007;BME280;31738;50.188;8.524;2023-02-15T05:19:28;100104.84;;;2.88;94.62
46007;BME280;31738;50.188;8.524;2023-02-15T05:21:56;100100.81;;;2.92;94.87
46007;BME280;31738;50.188;8.524;2023-02-15T05:24:31;100095.50;;;2.92;94.99
46007;BME280;31738;50.188;8.524;2023-02-15T05:27:18;100101.00;;;2.90;95.17
46007;BME280;31738;50.188;8.524;2023-02-15T05:30:03;100092.78;;;2.85;94.84
46007;BME280;31738;50.188;8.524;2023-02-15T05:32:33;100095.25;;;2.87;94.71
46007;BME280;31738;50.188;8.524;2023-02-15T05:35:01;100092.22;;;2.90;94.79
46007;BME280;31738;50.188;8.524;2023-02-15T05:37:31;100098.16;;;2.92;94.63
46007;BME280;31738;50.188;8.524;2023-02-15T05:39:59;100092.03;;;2.91;94.69
46007;BME280;31738;50.188;8.524;2023-02-15T05:42:32;100093.63;;;2.86;94.99
46007;BME280;31738;50.188;8.524;2023-02-15T05:45:00;100093.44;;;2.87;94.85
46007;BME280;31738;50.188;8.524;2023-02-15T05:47:29;100093.88;;;2.91;94.89
46007;BME280;31738;50.188;8.524;2023-02-15T05:50:08;100098.16;;;2.92;94.94
46007;BME280;31738;50.188;8.524;2023-02-15T05:52:44;100090.84;;;2.94;94.95
46007;BME280;31738;50.188;8.524;2023-02-15T05:55:23;100098.97;;;2.92;94.66
46007;BME280;31738;50.188;8.524;2023-02-15T05:57:54;100103.06;;;2.95;95.08
46007;BME280;31738;50.188;8.524;2023-02-15T06:00:24;100104.69;;;2.96;94.71
46007;BME280;31738;50.188;8.524;2023-02-15T06:02:58;100109.19;;;2.95;94.67
46007;BME280;31738;50.188;8.524;2023-02-15T06:05:27;100102.06;;;2.96;94.76
46007;BME280;31738;50.188;8.524;2023-02-15T06:07:55;100095.75;;;2.97;95.24
46007;BME280;31738;50.188;8.524;2023-02-15T06:10:21;100100.88;;;2.98;95.02
46007;BME280;31738;50.188;8.524;2023-02-15T06:12:48;100101.44;;;2.94;95.03
46007;BME280;31738;50.188;8.524;2023-02-15T06:15:16;100105.47;;;2.90;95.23
46007;BME280;31738;50.188;8.524;2023-02-15T06:17:50;100107.31;;;2.89;95.14
46007;BME280;31738;50.188;8.524;2023-02-15T06:20:19;100107.13;;;2.91;95.30
46007;BME280;31738;50.188;8.524;2023-02-15T06:22:47;100110.00;;;2.96;95.07
46007;BME280;31738;50.188;8.524;2023-02-15T06:25:20;100113.28;;;2.98;94.75
46007;BME280;31738;50.188;8.524;2023-02-15T06:27:46;100119.88;;;3.02;95.45
46007;BME280;31738;50.188;8.524;2023-02-15T06:30:16;100117.81;;;3.04;94.93
46007;BME280;31738;50.188;8.524;2023-02-15T06:32:47;100118.47;;;3.06;95.36
46007;BME280;31738;50.188;8.524;2023-02-15T06:35:16;100112.31;;;3.05;95.19
46007;BME280;31738;50.188;8.524;2023-02-15T06:38:12;100115.16;;;3.04;94.77
46007;BME280;31738;50.188;8.524;2023-02-15T06:40:50;100122.72;;;3.00;95.32
46007;BME280;31738;50.188;8.524;2023-02-15T06:44:08;100119.16;;;2.93;94.94
46007;BME280;31738;50.188;8.524;2023-02-15T06:47:24;100131.59;;;2.93;95.13
46007;BME280;31738;50.188;8.524;2023-02-15T06:50:04;100121.56;;;2.88;95.41
46007;BME280;31738;50.188;8.524;2023-02-15T06:52:33;100121.34;;;2.90;95.38
46007;BME280;31738;50.188;8.524;2023-02-15T06:55:16;100123.03;;;2.91;95.09
46007;BME280;31738;50.188;8.524;2023-02-15T06:57:47;100132.22;;;2.95;95.24
46007;BME280;31738;50.188;8.524;2023-02-15T07:00:25;100132.03;;;2.96;95.23
46007;BME280;31738;50.188;8.524;2023-02-15T07:03:06;100135.31;;;2.98;95.33
46007;BME280;31738;50.188;8.524;2023-02-15T07:05:40;100134.09;;;3.01;95.36
46007;BME280;31738;50.188;8.524;2023-02-15T07:08:11;100127.19;;;3.00;95.23
46007;BME280;31738;50.188;8.524;2023-02-15T07:10:57;100131.66;;;2.99;95.68
46007;BME280;31738;50.188;8.524;2023-02-15T07:13:49;100134.50;;;2.98;95.68
46007;BME280;31738;50.188;8.524;2023-02-15T07:16:24;100132.47;;;3.00;95.39
46007;BME280;31738;50.188;8.524;2023-02-15T07:19:01;100135.78;;;3.02;95.23
46007;BME280;31738;50.188;8.524;2023-02-15T07:21:56;100137.41;;;3.03;95.33
46007;BME280;31738;50.188;8.524;2023-02-15T07:24:36;100130.47;;;3.02;95.20
46007;BME280;31738;50.188;8.524;2023-02-15T07:27:37;100133.91;;;3.02;95.22
46007;BME280;31738;50.188;8.524;2023-02-15T07:30:16;100137.41;;;3.03;95.50
46007;BME280;31738;50.188;8.524;2023-02-15T07:33:21;100136.38;;;3.04;95.45
46007;BME280;31738;50.188;8.524;2023-02-15T07:36:09;100129.44;;;3.03;95.40
46007;BME280;31738;50.188;8.524;2023-02-15T07:39:20;100129.44;;;3.03;95.31
46007;BME280;31738;50.188;8.524;2023-02-15T07:42:16;100126.78;;;3.03;95.54
46007;BME280;31738;50.188;8.524;2023-02-15T07:45:23;100121.88;;;3.00;95.77
46007;BME280;31738;50.188;8.524;2023-02-15T07:48:08;100114.56;;;3.02;95.70
46007;BME280;31738;50.188;8.524;2023-02-15T07:51:18;100120.47;;;3.04;95.45
46007;BME280;31738;50.188;8.524;2023-02-15T07:54:05;100114.19;;;3.05;95.92
46007;BME280;31738;50.188;8.524;2023-02-15T07:57:05;100119.09;;;3.08;95.86
46007;BME280;31738;50.188;8.524;2023-02-15T07:59:37;100114.78;;;3.07;95.46
46007;BME280;31738;50.188;8.524;2023-02-15T08:02:24;100110.13;;;3.09;95.72
46007;BME280;31738;50.188;8.524;2023-02-15T08:05:02;100110.56;;;3.12;95.57
46007;BME280;31738;50.188;8.524;2023-02-15T08:07:44;100107.72;;;3.14;95.57
46007;BME280;31738;50.188;8.524;2023-02-15T08:10:31;100116.66;;;3.13;95.56
46007;BME280;31738;50.188;8.524;2023-02-15T08:13:29;100111.38;;;3.13;95.88
46007;BME280;31738;50.188;8.524;2023-02-15T08:16:32;100108.91;;;3.11;95.72
46007;BME280;31738;50.188;8.524;2023-02-15T08:19:40;100113.41;;;3.11;95.97
46007;BME280;31738;50.188;8.524;2023-02-15T08:22:45;100109.56;;;3.13;95.97
46007;BME280;31738;50.188;8.524;2023-02-15T08:25:59;100107.47;;;3.09;96.00
46007;BME280;31738;50.188;8.524;2023-02-15T08:28:34;100117.59;;;2.99;96.01
46007;BME280;31738;50.188;8.524;2023-02-15T08:31:21;100104.69;;;2.96;95.59
46007;BME280;31738;50.188;8.524;2023-02-15T08:34:05;100109.66;;;2.99;96.07
46007;BME280;31738;50.188;8.524;2023-02-15T08:37:01;100105.16;;;2.99;96.00
46007;BME280;31738;50.188;8.524;2023-02-15T08:39:44;100100.03;;;2.98;95.97
46007;BME280;31738;50.188;8.524;2023-02-15T08:42:45;100094.94;;;2.96;95.54
46007;BME280;31738;50.188;8.524;2023-02-15T08:45:43;100088.81;;;2.96;95.47
46007;BME280;31738;50.188;8.524;2023-02-15T08:48:44;100089.25;;;2.99;95.83
46007;BME280;31738;50.188;8.524;2023-02-15T08:51:40;100093.13;;;2.97;95.78
46007;BME280;31738;50.188;8.524;2023-02-15T08:54:27;100097.38;;;2.98;95.51
46007;BME280;31738;50.188;8.524;2023-02-15T08:57:17;100088.44;;;2.99;95.73
46007;BME280;31738;50.188;8.524;2023-02-15T09:00:17;100084.97;;;2.98;95.65
46007;BME280;31738;50.188;8.524;2023-02-15T09:03:00;100089.88;;;3.01;95.46
46007;BME280;31738;50.188;8.524;2023-02-15T09:08:54;100080.13;;;3.02;95.20
46007;BME280;31738;50.188;8.524;2023-02-15T09:11:44;100080.72;;;3.04;95.53
46007;BME280;31738;50.188;8.524;2023-02-15T09:14:36;100085.63;;;3.07;95.76
46007;BME280;31738;50.188;8.524;2023-02-15T09:17:11;100074.25;;;3.13;95.82
46007;BME280;31738;50.188;8.524;2023-02-15T09:20:06;100083.25;;;3.12;95.17
46007;BME280;31738;50.188;8.524;2023-02-15T09:23:04;100061.66;;;3.15;95.68
46007;BME280;31738;50.188;8.524;2023-02-15T09:25:38;100071.41;;;3.14;95.45
46007;BME280;31738;50.188;8.524;2023-02-15T09:28:27;100060.03;;;3.14;95.29
46007;BME280;31738;50.188;8.524;2023-02-15T09:31:12;100059.63;;;3.17;95.83
46007;BME280;31738;50.188;8.524;2023-02-15T09:38:02;100065.31;;;3.14;95.75
46007;BME280;31738;50.188;8.524;2023-02-15T09:44:53;100054.47;;;3.09;95.79
46007;BME280;31738;50.188;8.524;2023-02-15T09:51:58;100061.41;;;3.10;95.11
46007;BME280;31738;50.188;8.524;2023-02-15T09:58:15;100070.84;;;3.19;95.32
46007;BME280;31738;50.188;8.524;2023-02-15T10:05:37;100081.06;;;3.22;95.52
46007;BME280;31738;50.188;8.524;2023-02-15T10:12:05;100076.00;;;3.27;95.32
46007;BME280;31738;50.188;8.524;2023-02-15T10:28:28;100082.13;;;3.27;95.18
46007;BME280;31738;50.188;8.524;2023-02-15T10:31:41;100084.41;;;3.30;95.15
46007;BME280;31738;50.188;8.524;2023-02-15T10:38:25;100077.88;;;3.33;95.03
46007;BME280;31738;50.188;8.524;2023-02-15T10:50:51;100076.44;;;3.30;94.77
46007;BME280;31738;50.188;8.524;2023-02-15T11:00:54;100067.47;;;3.31;94.83
46007;BME280;31738;50.188;8.524;2023-02-15T11:04:02;100065.84;;;3.30;94.91
46007;BME280;31738;50.188;8.524;2023-02-15T11:06:57;100068.75;;;3.35;95.08
46007;BME280;31738;50.188;8.524;2023-02-15T11:09:59;100064.63;;;3.33;95.18
46007;BME280;31738;50.188;8.524;2023-02-15T11:12:45;100053.63;;;3.36;95.04
46007;BME280;31738;50.188;8.524;2023-02-15T11:16:16;100048.56;;;3.41;94.83
46007;BME280;31738;50.188;8.524;2023-02-15T11:19:01;100050.03;;;3.50;94.83
46007;BME280;31738;50.188;8.524;2023-02-15T11:22:01;100054.56;;;3.56;95.26
46007;BME280;31738;50.188;8.524;2023-02-15T11:29:10;100058.03;;;3.57;94.63
46007;BME280;31738;50.188;8.524;2023-02-15T11:35:10;100058.09;;;3.63;94.59
46007;BME280;31738;50.188;8.524;2023-02-15T11:39:17;100056.63;;;3.61;94.45
46007;BME280;31738;50.188;8.524;2023-02-15T11:42:14;100044.00;;;3.63;94.80
46007;BME280;31738;50.188;8.524;2023-02-15T11:45:26;100043.59;;;3.66;95.22
46007;BME280;31738;50.188;8.524;2023-02-15T11:48:34;100036.66;;;3.65;94.68
46007;BME280;31738;50.188;8.524;2023-02-15T11:51:08;100032.78;;;3.67;94.57
46007;BME280;31738;50.188;8.524;2023-02-15T11:53:47;100029.34;;;3.73;94.45
46007;BME280;31738;50.188;8.524;2023-02-15T11:56:43;100026.94;;;3.78;94.57
46007;BME280;31738;50.188;8.524;2023-02-15T11:59:24;100028.16;;;3.82;94.65
46007;BME280;31738;50.188;8.524;2023-02-15T12:02:02;100025.09;;;3.85;94.02
46007;BME280;31738;50.188;8.524;2023-02-15T12:05:25;100022.06;;;3.88;94.49
46007;BME280;31738;50.188;8.524;2023-02-15T12:08:17;100019.63;;;3.93;94.40
46007;BME280;31738;50.188;8.524;2023-02-15T12:14:17;100016.81;;;4.01;94.52
46007;BME280;31738;50.188;8.524;2023-02-15T12:16:57;100021.56;;;4.12;94.59
46007;BME280;31738;50.188;8.524;2023-02-15T12:19:45;100018.09;;;4.25;93.71
46007;BME280;31738;50.188;8.524;2023-02-15T12:22:38;100009.91;;;4.26;94.23
46007;BME280;31738;50.188;8.524;2023-02-15T12:28:34;100015.03;;;4.34;93.72
46007;BME280;31738;50.188;8.524;2023-02-15T12:31:46;100012.59;;;4.33;93.98
46007;BME280;31738;50.188;8.524;2023-02-15T12:34:40;100013.63;;;4.32;93.83
46007;BME280;31738;50.188;8.524;2023-02-15T12:37:29;100010.34;;;4.36;93.37
46007;BME280;31738;50.188;8.524;2023-02-15T12:40:58;100009.75;;;4.41;93.82
46007;BME280;31738;50.188;8.524;2023-02-15T12:46:29;99998.53;;;4.45;92.96
46007;BME280;31738;50.188;8.524;2023-02-15T12:49:41;100006.06;;;4.48;93.07
46007;BME280;31738;50.188;8.524;2023-02-15T12:55:28;99995.25;;;4.50;92.85
46007;BME280;31738;50.188;8.524;2023-02-15T12:58:20;99999.75;;;4.56;93.48
46007;BME280;31738;50.188;8.524;2023-02-15T13:01:56;99995.06;;;4.58;92.45
46007;BME280;31738;50.188;8.524;2023-02-15T13:05:56;99995.66;;;4.53;92.60
46007;BME280;31738;50.188;8.524;2023-02-15T13:08:45;99983.00;;;4.49;92.13
46007;BME280;31738;50.188;8.524;2023-02-15T13:18:23;99974.81;;;4.37;92.36
46007;BME280;31738;50.188;8.524;2023-02-15T13:24:25;99972.16;;;4.37;92.13
46007;BME280;31738;50.188;8.524;2023-02-15T13:27:24;99967.88;;;4.36;92.95
46007;BME280;31738;50.188;8.524;2023-02-15T13:30:03;99972.78;;;4.39;93.11
46007;BME280;31738;50.188;8.524;2023-02-15T13:32:48;99965.22;;;4.43;92.64
46007;BME280;31738;50.188;8.524;2023-02-15T13:52:26;99944.38;;;4.53;92.14
46007;BME280;31738;50.188;8.524;2023-02-15T13:59:30;99940.50;;;4.49;92.18
46007;BME280;31738;50.188;8.524;2023-02-15T14:12:43;99933.94;;;4.45;92.40
46007;BME280;31738;50.188;8.524;2023-02-15T14:29:09;99922.69;;;4.49;92.03
46007;BME280;31738;50.188;8.524;2023-02-15T14:32:20;99922.94;;;4.41;92.45
46007;BME280;31738;50.188;8.524;2023-02-15T14:35:58;99921.88;;;4.36;91.85
46007;BME280;31738;50.188;8.524;2023-02-15T14:49:40;99914.97;;;4.41;92.07
46007;BME280;31738;50.188;8.524;2023-02-15T15:01:59;99908.63;;;4.42;91.89
46007;BME280;31738;50.188;8.524;2023-02-15T15:04:38;99915.56;;;4.43;92.67
46007;BME280;31738;50.188;8.524;2023-02-15T15:07:25;99911.91;;;4.44;92.62
46007;BME280;31738;50.188;8.524;2023-02-15T15:16:56;99903.09;;;4.37;92.03
46007;BME280;31738;50.188;8.524;2023-02-15T15:22:32;99903.31;;;4.42;92.96
46007;BME280;31738;50.188;8.524;2023-02-15T15:28:03;99897.78;;;4.44;92.66
46007;BME280;31738;50.188;8.524;2023-02-15T15:37:17;99895.94;;;4.51;92.69
46007;BME280;31738;50.188;8.524;2023-02-15T15:49:35;99909.03;;;4.39;92.43
46007;BME280;31738;50.188;8.524;2023-02-15T15:52:19;99909.66;;;4.41;92.33
46007;BME280;31738;50.188;8.524;2023-02-15T15:55:12;99907.41;;;4.38;92.41
46007;BME280;31738;50.188;8.524;2023-02-15T15:57:56;99906.38;;;4.33;92.25
46007;BME280;31738;50.188;8.524;2023-02-15T16:03:41;99904.53;;;4.33;92.57
46007;BME280;31738;50.188;8.524;2023-02-15T16:06:56;99898.81;;;4.30;92.30
46007;BME280;31738;50.188;8.524;2023-02-15T16:09:53;99904.34;;;4.15;92.39
46007;BME280;31738;50.188;8.524;2023-02-15T16:12:47;99887.56;;;4.15;92.62
46007;BME280;31738;50.188;8.524;2023-02-15T16:15:51;99895.13;;;4.18;92.43
46007;BME280;31738;50.188;8.524;2023-02-15T16:18:29;99890.84;;;4.17;92.82
46007;BME280;31738;50.188;8.524;2023-02-15T16:21:34;99892.28;;;4.19;92.48
46007;BME280;31738;50.188;8.524;2023-02-15T16:24:35;99897.59;;;4.19;92.69
46007;BME280;31738;50.188;8.524;2023-02-15T16:27:39;99896.75;;;4.19;92.59
46007;BME280;31738;50.188;8.524;2023-02-15T16:33:19;99897.16;;;4.16;92.61
46007;BME280;31738;50.188;8.524;2023-02-15T16:35:59;99897.38;;;4.01;92.56
46007;BME280;31738;50.188;8.524;2023-02-15T16:41:43;99886.34;;;4.04;92.95
46007;BME280;31738;50.188;8.524;2023-02-15T16:44:42;99884.69;;;4.03;93.35
46007;BME280;31738;50.188;8.524;2023-02-15T16:50:46;99887.75;;;4.00;92.71
46007;BME280;31738;50.188;8.524;2023-02-15T16:53:37;99894.72;;;4.01;93.01
46007;BME280;31738;50.188;8.524;2023-02-15T16:56:33;99895.94;;;4.05;93.30
46007;BME280;31738;50.188;8.524;2023-02-15T17:03:22;99891.63;;;3.98;92.95
46007;BME280;31738;50.188;8.524;2023-02-15T17:06:02;99902.06;;;3.99;92.62
46007;BME280;31738;50.188;8.524;2023-02-15T17:08:46;99899.19;;;4.01;93.22
46007;BME280;31738;50.188;8.524;2023-02-15T17:11:51;99904.50;;;4.01;92.71
46007;BME280;31738;50.188;8.524;2023-02-15T17:14:53;99913.28;;;4.01;93.06
46007;BME280;31738;50.188;8.524;2023-02-15T17:17:44;99911.63;;;4.00;93.20
46007;BME280;31738;50.188;8.524;2023-02-15T17:20:20;99904.94;;;4.04;92.76
46007;BME280;31738;50.188;8.524;2023-02-15T17:22:46;99908.22;;;4.06;93.07
46007;BME280;31738;50.188;8.524;2023-02-15T17:25:20;99904.31;;;4.02;93.24
46007;BME280;31738;50.188;8.524;2023-02-15T17:27:51;99904.09;;;4.04;93.19
46007;BME280;31738;50.188;8.524;2023-02-15T17:30:26;99905.13;;;4.03;92.53
46007;BME280;31738;50.188;8.524;2023-02-15T17:32:57;99910.22;;;4.04;93.13
46007;BME280;31738;50.188;8.524;2023-02-15T17:35:25;99908.59;;;4.03;92.91
46007;BME280;31738;50.188;8.524;2023-02-15T17:38:05;99913.09;;;4.03;93.15
46007;BME280;31738;50.188;8.524;2023-02-15T17:40:34;99914.91;;;4.02;92.63
46007;BME280;31738;50.188;8.524;2023-02-15T17:43:00;99918.59;;;4.01;93.29
46007;BME280;31738;50.188;8.524;2023-02-15T17:45:31;99912.66;;;3.99;92.79
46007;BME280;31738;50.188;8.524;2023-02-15T17:47:58;99908.19;;;4.00;92.98
46007;BME280;31738;50.188;8.524;2023-02-15T17:50:26;99912.25;;;4.02;92.88
46007;BME280;31738;50.188;8.524;2023-02-15T17:52:55;99913.88;;;4.03;92.76
46007;BME280;31738;50.188;8.524;2023-02-15T17:55:22;99907.59;;;4.04;92.71
46007;BME280;31738;50.188;8.524;2023-02-15T17:58:31;99908.19;;;4.00;93.12